createdAt,value
2023-04-24T00:00:46.036Z,10.37
2023-04-24T00:02:10.389Z,11.00
2023-04-24T00:03:34.008Z,10.37
2023-04-24T00:04:56.270Z,10.90
2023-04-24T00:06:18.454Z,10.93
2023-04-24T00:07:41.328Z,11.13
2023-04-24T00:09:06.871Z,10.90
2023-04-24T00:10:29.040Z,10.40
2023-04-24T00:11:51.221Z,10.07
2023-04-24T00:13:13.470Z,10.67
2023-04-24T00:14:36.094Z,10.20
2023-04-24T00:15:58.105Z,10.70
2023-04-24T00:17:23.416Z,10.63
2023-04-24T00:18:46.005Z,12.00
2023-04-24T00:20:08.475Z,10.43
2023-04-24T00:21:30.960Z,10.97
2023-04-24T00:22:53.071Z,12.70
2023-04-24T00:24:15.155Z,12.17
2023-04-24T00:25:37.181Z,10.33
2023-04-24T00:26:59.431Z,11.30
2023-04-24T00:28:21.473Z,11.10
2023-04-24T00:29:43.685Z,11.40
2023-04-24T00:31:06.025Z,11.40
2023-04-24T00:32:28.120Z,11.60
2023-04-24T00:33:50.216Z,10.87
2023-04-24T00:35:12.338Z,11.90
2023-04-24T00:36:34.419Z,11.67
2023-04-24T00:37:56.514Z,12.47
2023-04-24T00:39:19.373Z,11.27
2023-04-24T00:40:41.492Z,11.77
2023-04-24T00:42:03.647Z,11.97
2023-04-24T00:43:25.889Z,12.27
2023-04-24T00:44:48.444Z,11.23
2023-04-24T00:46:10.550Z,10.40
2023-04-24T00:47:34.412Z,10.63
2023-04-24T00:48:57.591Z,11.17
2023-04-24T00:50:20.570Z,11.23
2023-04-24T00:51:46.447Z,11.30
2023-04-24T00:53:08.527Z,11.27
2023-04-24T00:54:30.538Z,11.60
2023-04-24T00:55:52.772Z,10.17
2023-04-24T00:57:16.262Z,11.67
2023-04-24T00:58:38.903Z,10.90
2023-04-24T01:00:00.964Z,10.80
2023-04-24T01:01:23.539Z,11.07
2023-04-24T01:02:46.826Z,12.00
2023-04-24T01:04:11.102Z,10.67
2023-04-24T01:05:33.774Z,10.10
2023-04-24T01:06:56.949Z,11.03
2023-04-24T01:08:19.694Z,11.57
2023-04-24T01:09:45.163Z,9.73
2023-04-24T01:11:07.412Z,11.30
2023-04-24T01:12:29.467Z,11.00
2023-04-24T01:13:51.539Z,9.40
2023-04-24T01:15:13.592Z,9.67
2023-04-24T01:16:36.716Z,10.63
2023-04-24T01:17:58.858Z,11.03
2023-04-24T01:19:20.999Z,10.30
2023-04-24T01:20:45.207Z,10.60
2023-04-24T01:22:13.509Z,10.57
2023-04-24T01:23:35.892Z,10.30
2023-04-24T01:24:58.198Z,10.17
2023-04-24T01:26:21.095Z,10.30
2023-04-24T01:27:43.266Z,9.97
2023-04-24T01:29:05.393Z,10.97
2023-04-24T01:30:28.368Z,10.03
2023-04-24T01:31:50.440Z,10.00
2023-04-24T01:33:12.951Z,11.40
2023-04-24T01:34:35.445Z,11.13
2023-04-24T01:35:57.912Z,11.13
2023-04-24T01:37:19.950Z,10.53
2023-04-24T01:38:42.239Z,10.93
2023-04-24T01:40:09.270Z,11.23
2023-04-24T01:41:31.539Z,11.43
2023-04-24T01:42:53.883Z,10.63
2023-04-24T01:44:16.513Z,10.70
2023-04-24T01:45:38.557Z,11.63
2023-04-24T01:47:02.090Z,11.37
2023-04-24T01:48:24.281Z,11.00
2023-04-24T01:49:48.749Z,11.20
2023-04-24T01:51:10.775Z,11.00
2023-04-24T01:52:34.249Z,11.30
2023-04-24T01:53:56.768Z,11.93
2023-04-24T01:55:19.119Z,11.70
2023-04-24T01:56:44.780Z,12.60
2023-04-24T01:58:07.042Z,10.83
2023-04-24T01:59:29.896Z,10.57
2023-04-24T02:00:51.948Z,10.77
2023-04-24T02:02:14.107Z,11.30
2023-04-24T02:03:36.264Z,10.87
2023-04-24T02:04:58.532Z,12.10
2023-04-24T02:06:20.628Z,11.57
2023-04-24T02:07:42.667Z,11.17
2023-04-24T02:09:04.781Z,11.73
2023-04-24T02:10:26.837Z,11.33
2023-04-24T02:11:48.919Z,12.07
2023-04-24T02:13:11.170Z,11.30
2023-04-24T02:14:33.358Z,10.87
2023-04-24T02:15:55.511Z,11.70
2023-04-24T02:17:17.837Z,10.77
2023-04-24T02:18:39.975Z,11.43
2023-04-24T02:20:02.047Z,13.27
2023-04-24T02:21:24.087Z,11.07
2023-04-24T02:22:46.228Z,12.40
2023-04-24T02:24:08.262Z,12.03
2023-04-24T02:25:30.430Z,12.30
2023-04-24T02:26:52.545Z,13.10
2023-04-24T02:28:14.631Z,12.93
2023-04-24T02:29:36.733Z,12.50
2023-04-24T02:30:59.529Z,12.20
2023-04-24T02:32:21.560Z,12.60
2023-04-24T02:33:43.597Z,13.00
2023-04-24T02:35:06.088Z,12.60
2023-04-24T02:36:28.191Z,12.73
2023-04-24T02:37:50.271Z,12.93
2023-04-24T02:39:12.329Z,13.10
2023-04-24T02:40:34.339Z,13.20
2023-04-24T02:41:56.329Z,11.60
2023-04-24T02:43:18.421Z,12.27
2023-04-24T02:44:40.530Z,12.00
2023-04-24T02:46:02.631Z,13.60
2023-04-24T02:47:24.790Z,12.73
2023-04-24T02:48:46.999Z,12.07
2023-04-24T02:50:09.327Z,13.40
2023-04-24T02:51:31.911Z,12.80
2023-04-24T02:52:53.984Z,12.17
2023-04-24T02:54:16.007Z,12.40
2023-04-24T02:55:38.021Z,12.77
2023-04-24T02:57:00.132Z,13.13
2023-04-24T02:58:22.173Z,12.00
2023-04-24T02:59:44.794Z,13.53
2023-04-24T03:01:07.076Z,12.23
2023-04-24T03:02:29.338Z,12.77
2023-04-24T03:03:51.563Z,13.43
2023-04-24T03:05:13.617Z,12.70
2023-04-24T03:06:36.498Z,12.40
2023-04-24T03:07:58.737Z,12.80
2023-04-24T03:09:20.771Z,12.00
2023-04-24T03:10:42.778Z,12.83
2023-04-24T03:12:04.845Z,12.67
2023-04-24T03:13:27.049Z,12.30
2023-04-24T03:14:49.046Z,13.03
2023-04-24T03:16:11.093Z,11.67
2023-04-24T03:17:33.633Z,11.70
2023-04-24T03:18:55.954Z,12.60
2023-04-24T03:20:18.003Z,11.53
2023-04-24T03:21:41.659Z,12.43
2023-04-24T03:23:03.960Z,11.10
2023-04-24T03:24:28.935Z,12.60
2023-04-24T03:25:50.982Z,12.50
2023-04-24T03:27:12.995Z,12.03
2023-04-24T03:28:35.127Z,11.87
2023-04-24T03:29:57.297Z,12.70
2023-04-24T03:31:20.201Z,12.10
2023-04-24T03:32:42.298Z,11.70
2023-04-24T03:34:04.356Z,12.90
2023-04-24T03:35:26.387Z,12.20
2023-04-24T03:36:51.117Z,12.33
2023-04-24T03:38:13.142Z,13.30
2023-04-24T03:39:35.229Z,14.23
2023-04-24T03:40:57.310Z,13.00
2023-04-24T03:42:19.498Z,12.93
2023-04-24T03:43:41.563Z,12.93
2023-04-24T03:45:04.006Z,14.10
2023-04-24T03:46:26.111Z,13.23
2023-04-24T03:47:48.206Z,14.00
2023-04-24T03:49:10.272Z,13.33
2023-04-24T03:51:36.377Z,13.27
2023-04-24T03:52:58.825Z,13.63
2023-04-24T03:54:21.195Z,13.20
2023-04-24T03:55:43.497Z,11.90
2023-04-24T03:57:05.812Z,13.70
2023-04-24T03:58:27.887Z,12.20
2023-04-24T03:59:49.919Z,10.93
2023-04-24T04:01:13.117Z,11.80
2023-04-24T04:02:35.461Z,10.93
2023-04-24T04:03:57.825Z,10.87
2023-04-24T04:05:20.415Z,10.20
2023-04-24T04:06:43.292Z,10.90
2023-04-24T04:08:05.357Z,11.63
2023-04-24T04:09:27.581Z,9.10
2023-04-24T04:10:49.635Z,9.70
2023-04-24T04:12:11.685Z,8.80
2023-04-24T04:13:33.821Z,9.93
2023-04-24T04:14:55.962Z,10.20
2023-04-24T04:16:18.507Z,9.53
2023-04-24T04:17:40.753Z,9.20
2023-04-24T04:19:03.981Z,9.30
2023-04-24T04:20:26.275Z,9.53
2023-04-24T04:21:53.060Z,8.77
2023-04-24T04:23:15.159Z,8.20
2023-04-24T04:24:39.018Z,8.00
2023-04-24T04:26:01.270Z,7.70
2023-04-24T04:27:23.426Z,6.30
2023-04-24T04:28:45.511Z,7.23
2023-04-24T04:30:09.422Z,6.50
2023-04-24T04:31:32.311Z,6.10
2023-04-24T04:32:54.418Z,7.97
2023-04-24T04:34:16.502Z,5.73
2023-04-24T04:35:38.543Z,6.50
2023-04-24T04:37:02.569Z,6.53
2023-04-24T04:38:24.693Z,7.13
2023-04-24T04:39:46.699Z,6.40
2023-04-24T04:41:08.689Z,6.40
2023-04-24T04:42:31.460Z,6.73
2023-04-24T04:43:53.800Z,7.90
2023-04-24T04:45:18.174Z,8.30
2023-04-24T04:46:40.305Z,8.73
2023-04-24T04:48:03.374Z,7.93
2023-04-24T04:49:25.461Z,8.27
2023-04-24T04:50:47.545Z,8.23
2023-04-24T04:52:10.098Z,7.40
2023-04-24T04:53:32.142Z,8.47
2023-04-24T04:54:54.239Z,7.57
2023-04-24T04:56:16.297Z,8.43
2023-04-24T04:57:38.333Z,7.67
2023-04-24T04:59:00.419Z,9.33
2023-04-24T05:00:22.721Z,8.03
2023-04-24T05:01:44.826Z,8.40
2023-04-24T05:03:20.012Z,7.73
2023-04-24T05:04:43.980Z,7.90
2023-04-24T05:06:06.821Z,8.10
2023-04-24T05:07:28.820Z,7.70
2023-04-24T05:08:52.071Z,8.43
2023-04-24T05:10:14.132Z,7.37
2023-04-24T05:11:36.192Z,7.20
2023-04-24T05:12:58.235Z,8.17
2023-04-24T05:14:20.413Z,6.47
2023-04-24T05:15:42.496Z,6.53
2023-04-24T05:17:04.944Z,6.43
2023-04-24T05:18:27.080Z,6.30
2023-04-24T05:19:49.221Z,5.60
2023-04-24T05:21:11.301Z,5.93
2023-04-24T05:22:33.428Z,7.07
2023-04-24T05:23:55.572Z,6.83
2023-04-24T05:25:17.681Z,6.43
2023-04-24T05:26:39.733Z,5.37
2023-04-24T05:28:02.262Z,5.93
2023-04-24T05:29:24.357Z,6.03
2023-04-24T05:30:46.447Z,5.57
2023-04-24T05:32:08.505Z,5.23
2023-04-24T05:33:31.030Z,6.37
2023-04-24T05:34:53.062Z,5.90
2023-04-24T05:36:15.502Z,6.30
2023-04-24T05:37:37.650Z,5.83
2023-04-24T05:38:59.672Z,6.57
2023-04-24T05:40:21.838Z,5.80
2023-04-24T05:41:44.402Z,6.77
2023-04-24T05:43:06.551Z,6.30
2023-04-24T05:44:28.583Z,6.20
2023-04-24T05:45:50.690Z,6.27
2023-04-24T05:47:12.811Z,5.90
2023-04-24T05:48:34.931Z,5.47
2023-04-24T05:49:57.003Z,6.53
2023-04-24T05:51:19.061Z,6.73
2023-04-24T05:52:41.122Z,6.17
2023-04-24T05:54:04.201Z,6.10
2023-04-24T05:55:26.867Z,6.67
2023-04-24T05:56:49.878Z,6.87
2023-04-24T05:58:13.222Z,6.60
2023-04-24T05:59:38.391Z,6.47
2023-04-24T06:01:02.282Z,6.43
2023-04-24T06:02:24.525Z,5.93
2023-04-24T06:03:47.027Z,6.50
2023-04-24T06:05:09.531Z,6.60
2023-04-24T06:06:32.413Z,6.23
2023-04-24T06:07:54.496Z,7.17
2023-04-24T06:09:17.904Z,6.13
2023-04-24T06:10:39.966Z,6.70
2023-04-24T06:12:02.085Z,7.00
2023-04-24T06:13:24.130Z,7.13
2023-04-24T06:14:46.402Z,7.57
2023-04-24T06:16:08.673Z,6.23
2023-04-24T06:17:31.906Z,6.50
2023-04-24T06:18:53.977Z,7.23
2023-04-24T06:20:16.210Z,7.50
2023-04-24T06:21:38.283Z,6.93
2023-04-24T06:23:00.370Z,6.67
2023-04-24T06:24:22.419Z,6.70
2023-04-24T06:25:44.603Z,6.60
2023-04-24T06:27:06.781Z,6.27
2023-04-24T06:28:29.158Z,6.67
2023-04-24T06:29:55.339Z,6.57
2023-04-24T06:31:17.642Z,6.93
2023-04-24T06:32:39.710Z,7.10
2023-04-24T06:34:02.992Z,7.33
2023-04-24T06:35:25.057Z,7.60
2023-04-24T06:36:48.272Z,7.13
2023-04-24T06:38:10.575Z,6.73
2023-04-24T06:39:32.624Z,7.23
2023-04-24T06:40:54.913Z,7.13
2023-04-24T06:42:17.010Z,7.20
2023-04-24T06:43:39.098Z,7.00
2023-04-24T06:45:01.437Z,7.87
2023-04-24T06:46:26.829Z,6.70
2023-04-24T06:47:48.991Z,7.80
2023-04-24T06:49:11.203Z,6.80
2023-04-24T06:50:33.526Z,6.90
2023-04-24T06:51:55.571Z,8.17
2023-04-24T06:53:18.029Z,7.53
2023-04-24T06:54:40.098Z,7.40
2023-04-24T06:56:02.280Z,7.23
2023-04-24T06:57:24.384Z,7.50
2023-04-24T06:58:46.675Z,7.03
2023-04-24T07:00:10.348Z,8.33
2023-04-24T07:01:32.524Z,8.73
2023-04-24T07:02:54.655Z,8.07
2023-04-24T07:04:17.163Z,7.40
2023-04-24T07:05:39.465Z,7.57
2023-04-24T07:07:01.978Z,8.43
2023-04-24T07:08:24.136Z,8.67
2023-04-24T07:09:46.958Z,8.00
2023-04-24T07:11:09.070Z,8.27
2023-04-24T07:12:31.128Z,8.17
2023-04-24T07:13:53.182Z,8.17
2023-04-24T07:15:15.344Z,8.50
2023-04-24T07:16:37.704Z,8.47
2023-04-24T07:17:59.962Z,9.10
2023-04-24T07:19:22.160Z,7.80
2023-04-24T07:20:44.272Z,8.00
2023-04-24T07:22:06.502Z,7.87
2023-04-24T07:23:28.728Z,7.67
2023-04-24T07:24:50.853Z,7.70
2023-04-24T07:26:13.445Z,9.00
2023-04-24T07:27:36.885Z,8.00
2023-04-24T07:28:59.001Z,7.60
2023-04-24T07:30:21.175Z,6.40
2023-04-24T07:31:43.350Z,7.10
2023-04-24T07:33:05.821Z,6.50
2023-04-24T07:34:27.946Z,6.40
2023-04-24T07:35:50.048Z,6.40
2023-04-24T07:37:12.186Z,5.83
2023-04-24T07:38:34.457Z,6.03
2023-04-24T07:39:56.831Z,6.37
2023-04-24T07:41:18.895Z,5.30
2023-04-24T07:42:41.622Z,6.70
2023-04-24T07:44:03.759Z,6.03
2023-04-24T07:45:27.129Z,4.97
2023-04-24T07:46:49.379Z,5.93
2023-04-24T07:48:11.679Z,5.23
2023-04-24T07:49:35.790Z,4.90
2023-04-24T07:50:57.851Z,5.17
2023-04-24T07:52:19.898Z,5.07
2023-04-24T07:53:42.861Z,5.60
2023-04-24T07:55:05.862Z,5.30
2023-04-24T07:56:28.141Z,5.00
2023-04-24T07:57:50.428Z,5.03
2023-04-24T07:59:12.606Z,4.67
2023-04-24T08:00:34.639Z,5.10
2023-04-24T08:01:56.734Z,5.90
2023-04-24T08:03:20.948Z,5.07
2023-04-24T08:04:43.521Z,5.40
2023-04-24T08:06:06.277Z,4.50
2023-04-24T08:07:28.364Z,4.60
2023-04-24T08:08:50.554Z,4.60
2023-04-24T08:10:12.853Z,4.70
2023-04-24T08:11:34.995Z,4.60
2023-04-24T08:12:57.636Z,4.33
2023-04-24T08:14:19.776Z,3.90
2023-04-24T08:15:42.261Z,3.50
2023-04-24T08:17:04.382Z,4.00
2023-04-24T08:18:27.345Z,3.80
2023-04-24T08:19:49.678Z,3.80
2023-04-24T08:21:13.881Z,3.80
2023-04-24T08:22:36.031Z,3.37
2023-04-24T08:23:58.077Z,3.67
2023-04-24T08:25:20.232Z,3.93
2023-04-24T08:26:42.486Z,3.77
2023-04-24T08:28:06.684Z,3.90
2023-04-24T08:29:28.920Z,3.70
2023-04-24T08:30:55.460Z,3.43
2023-04-24T08:32:18.093Z,3.43
2023-04-24T08:33:41.892Z,3.10
2023-04-24T08:35:04.540Z,4.00
2023-04-24T08:36:35.916Z,3.77
2023-04-24T08:38:06.181Z,3.63
2023-04-24T08:39:28.400Z,4.27
2023-04-24T08:40:50.628Z,3.60
2023-04-24T08:42:13.975Z,3.10
2023-04-24T08:43:37.508Z,2.97
2023-04-24T08:44:59.608Z,2.93
2023-04-24T08:46:23.048Z,2.90
2023-04-24T08:47:46.289Z,2.90
2023-04-24T08:49:08.394Z,3.90
2023-04-24T08:50:31.284Z,3.37
2023-04-24T08:51:53.772Z,2.73
2023-04-24T08:53:16.462Z,3.17
2023-04-24T08:54:39.783Z,3.30
2023-04-24T08:56:02.962Z,2.50
2023-04-24T08:57:27.109Z,2.60
2023-04-24T08:58:49.383Z,3.10
2023-04-24T09:00:12.669Z,2.80
2023-04-24T09:01:38.414Z,3.43
2023-04-24T09:03:02.540Z,3.20
2023-04-24T09:04:26.084Z,2.40
2023-04-24T09:05:51.264Z,3.00
2023-04-24T09:07:15.207Z,2.87
2023-04-24T09:08:37.414Z,2.80
2023-04-24T09:10:00.275Z,3.00
2023-04-24T09:11:25.246Z,2.67
2023-04-24T09:12:47.987Z,3.10
2023-04-24T09:14:11.294Z,2.80
2023-04-24T09:15:33.375Z,2.90
2023-04-24T09:16:55.555Z,2.90
2023-04-24T09:18:18.595Z,2.77
2023-04-24T09:19:42.029Z,3.03
2023-04-24T09:21:07.465Z,2.53
2023-04-24T09:22:33.173Z,2.77
2023-04-24T09:24:04.306Z,2.70
2023-04-24T09:25:34.533Z,2.40
2023-04-24T09:26:59.673Z,2.40
2023-04-24T09:28:33.695Z,2.40
2023-04-24T09:29:56.839Z,2.90
2023-04-24T09:31:22.988Z,3.00
2023-04-24T09:32:45.214Z,2.60
2023-04-24T09:34:08.180Z,3.50
2023-04-24T09:35:33.017Z,2.90
2023-04-24T09:36:56.065Z,3.10
2023-04-24T09:38:18.377Z,2.30
2023-04-24T09:39:41.417Z,2.17
2023-04-24T09:41:06.068Z,2.67
2023-04-24T09:42:30.505Z,2.50
2023-04-24T09:43:54.904Z,2.10
2023-04-24T09:45:17.690Z,2.43
2023-04-24T09:46:39.847Z,1.60
2023-04-24T09:48:02.250Z,1.90
2023-04-24T09:49:26.686Z,1.80
2023-04-24T09:51:00.327Z,1.40
2023-04-24T09:52:22.399Z,1.50
2023-04-24T09:53:48.477Z,1.53
2023-04-24T09:55:19.763Z,1.30
2023-04-24T09:56:47.296Z,1.23
2023-04-24T09:58:09.635Z,1.53
2023-04-24T09:59:32.014Z,1.73
2023-04-24T10:00:57.988Z,1.30
2023-04-24T10:02:21.090Z,1.50
2023-04-24T10:03:44.014Z,1.43
2023-04-24T10:05:06.804Z,1.27
2023-04-24T10:06:34.645Z,1.53
2023-04-24T10:08:07.033Z,1.23
2023-04-24T10:09:29.022Z,1.17
2023-04-24T10:10:51.064Z,1.20
2023-04-24T10:12:14.247Z,1.40
2023-04-24T10:13:37.021Z,1.53
2023-04-24T10:14:59.990Z,1.37
2023-04-24T10:16:23.344Z,1.40
2023-04-24T10:17:46.987Z,1.90
2023-04-24T10:19:09.385Z,2.00
2023-04-24T10:20:32.030Z,2.50
2023-04-24T10:21:55.628Z,1.30
2023-04-24T10:23:20.260Z,1.80
2023-04-24T10:24:43.394Z,2.20
2023-04-24T10:26:05.806Z,2.10
2023-04-24T10:27:29.396Z,1.40
2023-04-24T10:28:51.724Z,1.30
2023-04-24T10:30:14.997Z,1.60
2023-04-24T10:31:39.066Z,2.03
2023-04-24T10:33:01.606Z,1.70
2023-04-24T10:34:25.064Z,1.47
2023-04-24T10:35:49.951Z,1.53
2023-04-24T10:37:12.077Z,1.20
2023-04-24T10:38:35.616Z,1.20
2023-04-24T10:39:57.978Z,1.00
2023-04-24T10:41:26.576Z,1.00
2023-04-24T10:42:49.995Z,1.10
2023-04-24T10:44:14.379Z,0.90
2023-04-24T10:45:36.906Z,1.13
2023-04-24T10:46:59.041Z,1.20
2023-04-24T10:48:27.986Z,1.13
2023-04-24T10:49:51.935Z,1.10
2023-04-24T10:51:15.218Z,1.40
2023-04-24T10:53:05.482Z,2.23
2023-04-24T10:54:29.369Z,2.20
2023-04-24T10:56:00.117Z,2.13
2023-04-24T10:57:25.476Z,1.93
2023-04-24T10:58:53.344Z,1.20
2023-04-24T11:00:15.564Z,1.40
2023-04-24T11:01:39.536Z,1.20
2023-04-24T11:03:01.703Z,1.30
2023-04-24T11:04:32.274Z,1.37
2023-04-24T11:06:06.192Z,1.13
2023-04-24T11:07:28.282Z,1.03
2023-04-24T11:08:51.201Z,1.10
2023-04-24T11:10:29.138Z,1.10
2023-04-24T11:11:51.332Z,1.00
2023-04-24T11:13:18.120Z,1.20
2023-04-24T11:15:11.159Z,0.90
2023-04-24T11:16:37.104Z,1.17
2023-04-24T11:17:59.320Z,1.47
2023-04-24T11:19:29.648Z,1.00
2023-04-24T11:20:55.267Z,1.10
2023-04-24T11:22:18.971Z,0.90
2023-04-24T11:23:41.967Z,0.90
2023-04-24T11:25:05.306Z,1.00
2023-04-24T11:26:33.187Z,1.33
2023-04-24T11:28:06.248Z,0.80
2023-04-24T11:29:43.915Z,1.00
2023-04-24T11:31:41.996Z,1.00
2023-04-24T11:33:05.585Z,0.83
2023-04-24T11:34:27.803Z,0.80
2023-04-24T11:35:52.010Z,1.10
2023-04-24T11:37:14.753Z,1.00
2023-04-24T11:38:36.839Z,0.80
2023-04-24T11:40:00.682Z,1.00
2023-04-24T11:41:23.240Z,0.90
2023-04-24T11:42:47.145Z,0.90
2023-04-24T11:44:10.380Z,0.83
2023-04-24T11:45:32.624Z,0.93
2023-04-24T11:46:57.284Z,1.13
2023-04-24T11:48:23.184Z,0.90
2023-04-24T11:49:45.934Z,0.90
2023-04-24T11:51:08.093Z,1.00
2023-04-24T11:52:31.138Z,0.80
2023-04-24T11:54:03.687Z,0.90
2023-04-24T11:55:28.589Z,0.90
2023-04-24T11:56:50.774Z,0.80
2023-04-24T11:58:12.844Z,1.10
2023-04-24T11:59:38.847Z,0.80
2023-04-24T12:01:02.144Z,1.17
2023-04-24T12:02:28.564Z,1.07
2023-04-24T12:03:52.386Z,0.80
2023-04-24T12:05:28.234Z,0.83
2023-04-24T12:07:04.623Z,0.93
2023-04-24T12:08:30.284Z,0.90
2023-04-24T12:10:00.956Z,0.87
2023-04-24T12:11:23.294Z,0.80
2023-04-24T12:12:47.492Z,1.30
2023-04-24T12:14:13.314Z,1.00
2023-04-24T12:15:35.556Z,0.83
2023-04-24T12:16:58.155Z,0.90
2023-04-24T12:18:22.916Z,0.80
2023-04-24T12:19:49.102Z,0.80
2023-04-24T12:21:23.199Z,0.90
2023-04-24T12:23:00.264Z,1.03
2023-04-24T12:24:22.503Z,0.97
2023-04-24T12:25:44.630Z,0.80
2023-04-24T12:27:06.710Z,0.73
2023-04-24T12:28:39.200Z,1.40
2023-04-24T12:30:03.301Z,1.00
2023-04-24T12:31:25.571Z,0.80
2023-04-24T12:32:49.430Z,0.90
2023-04-24T12:34:22.115Z,0.90
2023-04-24T12:35:44.108Z,0.90
2023-04-24T12:37:14.850Z,0.80
2023-04-24T12:38:41.582Z,0.80
2023-04-24T12:40:09.436Z,0.80
2023-04-24T12:41:32.025Z,0.80
2023-04-24T12:42:55.229Z,0.93
2023-04-24T12:44:19.547Z,0.70
2023-04-24T12:45:41.687Z,0.80
2023-04-24T12:47:04.097Z,0.80
2023-04-24T12:48:29.905Z,0.83
2023-04-24T12:49:53.280Z,1.00
2023-04-24T12:51:15.992Z,0.80
2023-04-24T12:52:38.856Z,0.90
2023-04-24T12:54:00.954Z,1.10
2023-04-24T12:55:23.141Z,0.90
2023-04-24T12:56:45.324Z,0.80
2023-04-24T12:58:07.341Z,0.90
2023-04-24T12:59:29.395Z,0.90
2023-04-24T13:00:51.902Z,0.80
2023-04-24T13:02:14.119Z,0.80
2023-04-24T13:03:36.881Z,0.70
2023-04-24T13:04:59.856Z,0.80
2023-04-24T13:06:22.220Z,1.00
2023-04-24T13:07:44.230Z,1.00
2023-04-24T13:09:06.253Z,0.80
2023-04-24T13:10:28.779Z,0.80
2023-04-24T13:11:51.486Z,1.00
2023-04-24T13:13:13.920Z,0.90
2023-04-24T13:14:36.478Z,0.70
2023-04-24T13:15:58.685Z,1.10
2023-04-24T13:17:21.145Z,0.90
2023-04-24T13:18:43.319Z,0.90
2023-04-24T13:20:05.941Z,0.77
2023-04-24T13:21:28.594Z,0.70
2023-04-24T13:22:50.737Z,1.00
2023-04-24T13:24:14.254Z,1.23
2023-04-24T13:25:38.320Z,1.10
2023-04-24T13:27:01.738Z,1.00
2023-04-24T13:28:25.988Z,1.00
2023-04-24T13:29:48.045Z,1.07
2023-04-24T13:31:10.652Z,1.30
2023-04-24T13:32:34.455Z,1.60
2023-04-24T13:33:56.569Z,1.40
2023-04-24T13:35:18.643Z,1.60
2023-04-24T13:36:40.929Z,1.20
2023-04-24T13:38:06.837Z,0.90
2023-04-24T13:39:28.876Z,1.27
2023-04-24T13:40:51.041Z,1.10
2023-04-24T13:42:13.719Z,1.10
2023-04-24T13:43:36.101Z,0.97
2023-04-24T13:44:58.134Z,1.30
2023-04-24T13:46:21.285Z,1.20
2023-04-24T13:47:43.487Z,1.00
2023-04-24T13:49:05.690Z,0.90
2023-04-24T13:50:27.757Z,0.80
2023-04-24T13:51:50.034Z,0.90
2023-04-24T13:53:12.074Z,1.00
2023-04-24T13:54:34.136Z,1.00
2023-04-24T13:55:56.262Z,0.90
2023-04-24T13:57:18.539Z,0.80
2023-04-24T13:58:40.851Z,0.80
2023-04-24T14:00:05.139Z,1.00
2023-04-24T14:01:27.860Z,1.27
2023-04-24T14:02:50.271Z,0.80
2023-04-24T14:04:13.414Z,0.80
2023-04-24T14:05:37.793Z,0.90
2023-04-24T14:07:01.298Z,0.80
2023-04-24T14:08:23.453Z,0.80
2023-04-24T14:09:45.555Z,0.90
2023-04-24T14:11:07.993Z,1.10
2023-04-24T14:12:30.050Z,0.80
2023-04-24T14:13:52.149Z,0.90
2023-04-24T14:15:14.483Z,1.10
2023-04-24T14:16:36.722Z,0.80
2023-04-24T14:17:59.023Z,0.97
2023-04-24T14:19:21.823Z,0.83
2023-04-24T14:20:43.862Z,1.03
2023-04-24T14:22:05.896Z,1.20
2023-04-24T14:23:28.327Z,0.97
2023-04-24T14:24:50.527Z,1.00
2023-04-24T14:26:12.652Z,0.70
2023-04-24T14:27:35.667Z,0.80
2023-04-24T14:29:11.665Z,0.80
2023-04-24T14:30:38.414Z,0.90
2023-04-24T14:32:00.748Z,0.87
2023-04-24T14:33:23.000Z,0.80
2023-04-24T14:34:45.137Z,0.80
2023-04-24T14:36:07.402Z,0.80
2023-04-24T14:37:29.447Z,0.90
2023-04-24T14:38:51.554Z,0.97
2023-04-24T14:40:29.845Z,0.60
2023-04-24T14:41:56.149Z,0.60
2023-04-24T14:43:18.179Z,0.60
2023-04-24T14:44:40.342Z,0.63
2023-04-24T14:46:03.113Z,0.80
2023-04-24T14:47:25.369Z,0.60
2023-04-24T14:48:48.029Z,0.63
2023-04-24T14:50:10.274Z,0.80
2023-04-24T14:51:32.376Z,0.70
2023-04-24T14:52:58.604Z,0.60
2023-04-24T14:54:20.799Z,0.70
2023-04-24T14:55:42.980Z,0.70
2023-04-24T14:57:05.059Z,0.70
2023-04-24T14:58:27.195Z,0.70
2023-04-24T14:59:49.211Z,0.70
2023-04-24T15:01:11.963Z,0.70
2023-04-24T15:02:34.666Z,0.60
2023-04-24T15:03:56.890Z,0.90
2023-04-24T15:05:19.556Z,0.90
2023-04-24T15:06:41.798Z,0.80
2023-04-24T15:08:03.855Z,0.70
2023-04-24T15:09:26.540Z,0.90
2023-04-24T15:10:49.163Z,1.00
2023-04-24T15:12:13.253Z,0.60
2023-04-24T15:13:35.381Z,0.70
2023-04-24T15:14:59.018Z,0.63
2023-04-24T15:16:21.483Z,0.80
2023-04-24T15:17:43.640Z,0.67
2023-04-24T15:19:05.813Z,0.70
2023-04-24T15:20:27.824Z,0.70
2023-04-24T15:21:49.873Z,0.60
2023-04-24T15:23:12.112Z,0.70
2023-04-24T15:24:34.173Z,0.60
2023-04-24T15:25:56.959Z,0.50
2023-04-24T15:27:19.055Z,0.60
2023-04-24T15:28:41.085Z,0.60
2023-04-24T15:30:03.424Z,0.60
2023-04-24T15:31:25.569Z,0.70
2023-04-24T15:32:47.707Z,0.70
2023-04-24T15:34:09.840Z,0.60
2023-04-24T15:35:31.935Z,0.60
2023-04-24T15:36:54.004Z,0.67
2023-04-24T15:38:16.119Z,0.80
2023-04-24T15:39:38.212Z,0.60
2023-04-24T15:41:00.258Z,0.60
2023-04-24T15:42:22.361Z,0.70
2023-04-24T15:43:44.709Z,0.67
2023-04-24T15:45:07.512Z,0.70
2023-04-24T15:46:29.786Z,0.70
2023-04-24T15:47:52.080Z,0.70
2023-04-24T15:49:14.308Z,0.60
2023-04-24T15:50:36.406Z,0.70
2023-04-24T15:51:58.540Z,0.80
2023-04-24T15:53:23.259Z,0.90
2023-04-24T15:54:45.395Z,0.80
2023-04-24T15:56:07.611Z,0.80
2023-04-24T15:57:29.702Z,0.80
2023-04-24T15:58:51.822Z,0.70
2023-04-24T16:00:14.410Z,0.70
2023-04-24T16:01:36.605Z,1.00
2023-04-24T16:02:58.754Z,0.90
2023-04-24T16:04:21.119Z,0.87
2023-04-24T16:05:43.318Z,0.83
2023-04-24T16:07:11.980Z,1.00
2023-04-24T16:08:35.096Z,1.33
2023-04-24T16:09:57.314Z,1.20
2023-04-24T16:11:19.612Z,1.00
2023-04-24T16:12:41.919Z,1.10
2023-04-24T16:14:03.955Z,1.10
2023-04-24T16:15:26.208Z,1.20
2023-04-24T16:16:48.411Z,0.90
2023-04-24T16:18:10.698Z,1.20
2023-04-24T16:19:34.518Z,1.50
2023-04-24T16:20:57.061Z,1.47
2023-04-24T16:22:19.097Z,1.50
2023-04-24T16:23:42.264Z,1.60
2023-04-24T16:25:04.677Z,1.70
2023-04-24T16:26:26.904Z,1.70
2023-04-24T16:27:52.550Z,1.50
2023-04-24T16:29:15.560Z,1.40
2023-04-24T16:30:39.508Z,1.50
2023-04-24T16:32:01.552Z,1.50
2023-04-24T16:33:26.174Z,1.60
2023-04-24T16:34:48.271Z,1.50
2023-04-24T16:36:10.862Z,1.40
2023-04-24T16:37:33.093Z,1.40
2023-04-24T16:38:55.353Z,1.70
2023-04-24T16:40:18.498Z,1.33
2023-04-24T16:41:40.878Z,2.10
2023-04-24T16:43:03.004Z,1.70
2023-04-24T16:44:25.366Z,2.03
2023-04-24T16:45:47.426Z,1.90
2023-04-24T16:47:11.727Z,1.40
2023-04-24T16:48:34.221Z,1.90
2023-04-24T16:49:56.538Z,1.83
2023-04-24T16:51:18.731Z,1.80
2023-04-24T16:52:41.031Z,1.80
2023-04-24T16:54:03.236Z,2.00
2023-04-24T16:55:25.390Z,2.17
2023-04-24T16:56:47.468Z,2.20
2023-04-24T16:58:09.591Z,2.47
2023-04-24T16:59:33.930Z,2.23
2023-04-24T17:00:56.501Z,2.50
2023-04-24T17:02:18.730Z,2.23
2023-04-24T17:03:41.742Z,2.07
2023-04-24T17:05:04.138Z,1.90
2023-04-24T17:06:26.414Z,1.67
2023-04-24T17:07:48.781Z,1.77
2023-04-24T17:09:12.964Z,1.83
2023-04-24T17:10:35.006Z,2.07
2023-04-24T17:11:57.111Z,1.77
2023-04-24T17:13:19.196Z,2.30
2023-04-24T17:14:41.591Z,2.60
2023-04-24T17:16:03.793Z,2.10
2023-04-24T17:17:26.199Z,2.07
2023-04-24T17:18:49.132Z,2.00
2023-04-24T17:20:22.084Z,1.93
2023-04-24T17:21:45.875Z,2.30
2023-04-24T17:23:11.901Z,2.10
2023-04-24T17:24:34.240Z,2.63
2023-04-24T17:25:59.326Z,1.97
2023-04-24T17:27:21.882Z,2.57
2023-04-24T17:28:44.722Z,2.47
2023-04-24T17:30:09.231Z,2.20
2023-04-24T17:31:31.450Z,2.80
2023-04-24T17:32:53.610Z,2.57
2023-04-24T17:34:15.721Z,2.30
2023-04-24T17:35:37.881Z,2.40
2023-04-24T17:37:00.004Z,2.60
2023-04-24T17:38:22.080Z,2.50
2023-04-24T17:39:44.125Z,2.47
2023-04-24T17:41:07.050Z,2.63
2023-04-24T17:42:29.119Z,2.57
2023-04-24T17:43:51.307Z,2.60
2023-04-24T17:45:13.486Z,2.63
2023-04-24T17:46:35.722Z,2.70
2023-04-24T17:47:57.980Z,2.70
2023-04-24T17:49:20.045Z,2.50
2023-04-24T17:50:42.781Z,2.10
2023-04-24T17:52:05.677Z,2.57
2023-04-24T17:53:27.819Z,2.30
2023-04-24T17:54:49.920Z,2.33
2023-04-24T17:56:12.357Z,2.60
2023-04-24T17:57:34.461Z,2.30
2023-04-24T17:58:58.195Z,2.43
2023-04-24T18:00:20.372Z,2.50
2023-04-24T18:01:42.667Z,2.53
2023-04-24T18:03:07.670Z,2.50
2023-04-24T18:04:30.168Z,2.20
2023-04-24T18:05:52.451Z,2.53
2023-04-24T18:07:14.598Z,2.40
2023-04-24T18:08:36.733Z,2.73
2023-04-24T18:09:58.818Z,2.50
2023-04-24T18:11:21.096Z,2.80
2023-04-24T18:12:43.285Z,2.33
2023-04-24T18:14:05.472Z,2.70
2023-04-24T18:15:27.571Z,2.83
2023-04-24T18:16:49.756Z,2.90
2023-04-24T18:18:12.135Z,2.67
2023-04-24T18:19:34.461Z,3.10
2023-04-24T18:20:56.537Z,2.17